Time;durP1;ratioP1;P1;durP2;ratioP2;P2;SDS_P1;SDS_P2;PMS_P1;PMS_P2;Temp;Humidity;BMP_temperature;BMP_pressure;BME280_temperature;BME280_humidity;BME280_pressure;Samples;Min_cycle;Max_cycle;Signal;HPM_P1;HPM_P2
2021/03/24 00:00:51;;;;;;;13.40;9.77;;;2.70;99.90;;;;;;6157874;28;20249;-77
2021/03/24 00:03:53;;;;;;;14.10;9.53;;;2.70;99.90;;;;;;6159654;28;20222;-77
2021/03/24 00:06:56;;;;;;;16.20;10.20;;;2.70;99.90;;;;;;6158503;28;20730;-77
2021/03/24 00:09:57;;;;;;;14.83;9.53;;;2.70;99.90;;;;;;6157261;28;20241;-77
2021/03/24 00:13:00;;;;;;;16.03;10.73;;;2.70;99.90;;;;;;6158248;28;20703;-77
2021/03/24 00:16:03;;;;;;;16.70;10.17;;;2.80;99.90;;;;;;6156087;28;20226;-77
2021/03/24 00:19:05;;;;;;;18.13;11.13;;;2.80;99.90;;;;;;6158884;28;20229;-77
2021/03/24 00:22:07;;;;;;;12.63;8.80;;;2.90;99.90;;;;;;6158793;28;20245;-77
2021/03/24 00:25:12;;;;;;;13.27;9.37;;;3.00;99.90;;;;;;6158876;28;20707;-77
2021/03/24 00:28:15;;;;;;;15.43;9.50;;;3.10;99.90;;;;;;6158387;28;20226;-77
2021/03/24 00:31:17;;;;;;;12.83;8.03;;;3.10;99.90;;;;;;6162771;28;20230;-77
2021/03/24 00:34:19;;;;;;;14.93;10.37;;;3.10;99.90;;;;;;6162840;28;20230;-77
2021/03/24 00:37:21;;;;;;;13.93;9.47;;;3.00;99.90;;;;;;6160546;28;20237;-77
2021/03/24 00:40:41;;;;;;;18.30;10.37;;;3.00;99.90;;;;;;6161542;28;20268;-77
2021/03/24 00:43:42;;;;;;;14.40;9.60;;;3.00;99.90;;;;;;6160394;28;20288;-77
2021/03/24 00:46:44;;;;;;;14.70;10.57;;;2.90;99.90;;;;;;6154665;28;20241;-77
2021/03/24 00:49:47;;;;;;;15.97;10.77;;;2.90;99.90;;;;;;6162041;28;20233;-76
2021/03/24 00:53:07;;;;;;;14.87;9.70;;;3.00;99.90;;;;;;6161184;28;20246;-77
2021/03/24 00:56:09;;;;;;;15.97;10.17;;;3.10;99.90;;;;;;6167183;28;20221;-77
2021/03/24 00:59:11;;;;;;;12.80;9.77;;;3.20;99.90;;;;;;6169028;28;20730;-77
2021/03/24 01:02:12;;;;;;;14.57;8.80;;;3.20;99.90;;;;;;6162335;28;20236;-77
2021/03/24 01:05:18;;;;;;;14.03;9.40;;;3.20;99.90;;;;;;6161433;28;20261;-76
2021/03/24 01:08:24;;;;;;;13.47;8.97;;;3.20;99.90;;;;;;6167987;28;20251;-77
2021/03/24 01:11:26;;;;;;;17.53;10.50;;;3.10;99.90;;;;;;6189364;28;20225;-77
2021/03/24 01:14:27;;;;;;;16.47;11.13;;;3.00;99.90;;;;;;6189934;28;20237;-77
2021/03/24 01:17:29;;;;;;;14.17;9.80;;;3.10;99.90;;;;;;6186108;28;20228;-77
2021/03/24 01:20:34;;;;;;;12.83;9.53;;;3.10;99.90;;;;;;6185422;28;20229;-77
2021/03/24 01:23:36;;;;;;;14.50;10.17;;;3.00;99.90;;;;;;6146241;28;20534;-77
2021/03/24 01:26:37;;;;;;;15.67;10.57;;;3.00;99.90;;;;;;6182102;28;20325;-77
2021/03/24 01:29:39;;;;;;;13.13;9.37;;;3.00;99.90;;;;;;6185035;28;20231;-76
2021/03/24 01:32:41;;;;;;;14.43;10.40;;;2.90;99.90;;;;;;6163083;28;20608;-77
2021/03/24 01:35:44;;;;;;;17.90;11.30;;;2.90;99.90;;;;;;6126666;28;20228;-77
2021/03/24 01:38:46;;;;;;;15.43;10.00;;;2.90;99.90;;;;;;6142824;28;20548;-77
2021/03/24 01:41:48;;;;;;;12.50;9.33;;;3.00;99.90;;;;;;6181495;28;20229;-77
2021/03/24 01:45:26;;;;;;;13.23;9.07;;;3.00;99.90;;;;;;6184234;28;20374;-77
2021/03/24 01:48:27;;;;;;;14.97;9.67;;;3.00;99.90;;;;;;6165651;28;20235;-77
2021/03/24 01:51:43;;;;;;;15.67;10.50;;;3.00;99.90;;;;;;6163666;28;20232;-77
2021/03/24 01:54:45;;;;;;;16.87;10.03;;;3.00;99.90;;;;;;6161216;28;20764;-77
2021/03/24 01:57:46;;;;;;;14.37;9.40;;;3.10;99.90;;;;;;6143305;28;20730;-77
2021/03/24 02:00:51;;;;;;;13.63;9.77;;;3.10;99.90;;;;;;6143349;28;20777;-77
2021/03/24 02:03:53;;;;;;;17.07;10.27;;;3.10;99.90;;;;;;6145812;28;20245;-77
2021/03/24 02:07:03;;;;;;;13.87;9.07;;;3.10;99.90;;;;;;6165320;28;20291;-77
2021/03/24 02:10:17;;;;;;;14.40;9.83;;;3.20;99.90;;;;;;6159679;28;20615;-77
2021/03/24 02:13:28;;;;;;;14.10;10.13;;;3.30;99.90;;;;;;6160235;28;20238;-77
2021/03/24 02:16:34;;;;;;;14.87;9.50;;;3.40;99.90;;;;;;6141136;28;20723;-77
2021/03/24 02:19:51;;;;;;;15.00;9.33;;;3.40;99.90;;;;;;6146957;28;20600;-77
2021/03/24 02:22:58;;;;;;;14.90;9.10;;;3.40;99.90;;;;;;6166691;28;20312;-77
2021/03/24 02:26:33;;;;;;;12.93;8.40;;;3.40;99.90;;;;;;6166896;28;20227;-77
2021/03/24 02:29:37;;;;;;;15.37;9.73;;;3.40;99.90;;;;;;6142000;28;20232;-77
2021/03/24 02:32:45;;;;;;;12.70;8.20;;;3.40;99.90;;;;;;6159538;28;20236;-77
2021/03/24 02:35:51;;;;;;;11.50;8.37;;;3.30;99.90;;;;;;6143112;28;20234;-77
2021/03/24 02:38:57;;;;;;;10.77;7.73;;;3.30;99.90;;;;;;6159742;28;20741;-77
2021/03/24 02:42:03;;;;;;;14.40;9.57;;;3.20;99.90;;;;;;6183264;28;20239;-77
2021/03/24 02:45:06;;;;;;;15.57;9.67;;;3.20;99.90;;;;;;6182785;28;20312;-77
2021/03/24 02:48:15;;;;;;;13.87;9.43;;;3.10;99.90;;;;;;6165296;28;20229;-77
2021/03/24 02:51:23;;;;;;;14.20;8.97;;;3.10;99.90;;;;;;6165849;28;20229;-77
2021/03/24 02:54:39;;;;;;;16.17;10.10;;;3.00;99.90;;;;;;6183108;28;20287;-77
2021/03/24 02:57:41;;;;;;;15.77;11.07;;;3.00;99.90;;;;;;6182351;28;20245;-77
2021/03/24 03:00:45;;;;;;;15.67;9.97;;;2.90;99.90;;;;;;6182430;28;20221;-77
2021/03/24 03:04:07;;;;;;;16.33;10.00;;;2.90;99.90;;;;;;6164760;28;20240;-77
2021/03/24 03:07:31;;;;;;;17.53;10.77;;;2.90;99.90;;;;;;6182519;28;20233;-77
2021/03/24 03:10:36;;;;;;;16.27;11.30;;;2.80;99.90;;;;;;6166001;28;20246;-77
2021/03/24 03:13:49;;;;;;;17.43;11.83;;;2.70;99.90;;;;;;6182865;28;20241;-77
2021/03/24 03:16:56;;;;;;;16.17;11.67;;;2.80;99.90;;;;;;6167477;28;20316;-77
2021/03/24 03:20:13;;;;;;;14.17;9.83;;;2.90;99.90;;;;;;6183574;28;20279;-77
2021/03/24 03:23:19;;;;;;;15.13;11.73;;;2.90;99.90;;;;;;6181967;28;20241;-77
2021/03/24 03:26:23;;;;;;;17.90;11.00;;;2.90;99.90;;;;;;6181903;28;20240;-77
2021/03/24 03:29:27;;;;;;;18.87;11.13;;;2.90;99.90;;;;;;6165387;28;20734;-77
2021/03/24 03:32:31;;;;;;;17.20;10.47;;;2.90;99.90;;;;;;6165502;28;20316;-77
2021/03/24 03:35:35;;;;;;;15.70;10.93;;;2.80;99.90;;;;;;6165143;28;20236;-77
2021/03/24 03:38:38;;;;;;;13.07;9.43;;;2.80;99.90;;;;;;6182050;28;20232;-77
2021/03/24 03:41:40;;;;;;;15.43;10.70;;;2.70;99.90;;;;;;6181665;28;20233;-77
2021/03/24 03:44:42;;;;;;;18.60;11.60;;;2.60;99.90;;;;;;6183455;28;20229;-76
2021/03/24 03:47:45;;;;;;;16.67;10.93;;;2.60;99.90;;;;;;6141939;28;20237;-77
2021/03/24 03:50:52;;;;;;;18.70;11.77;;;2.70;99.90;;;;;;6161715;28;20241;-76
2021/03/24 03:54:15;;;;;;;19.43;12.67;;;2.80;99.90;;;;;;6158679;28;20257;-76
2021/03/24 03:57:31;;;;;;;18.67;11.87;;;2.90;99.90;;;;;;6158199;28;20249;-76
2021/03/24 04:00:50;;;;;;;18.07;11.73;;;2.90;99.90;;;;;;6154238;28;20684;-76
2021/03/24 04:04:02;;;;;;;14.97;10.37;;;3.00;99.90;;;;;;6119163;28;20230;-77
2021/03/24 04:07:26;;;;;;;13.77;10.10;;;3.00;99.90;;;;;;6139586;28;20305;-77
2021/03/24 04:10:32;;;;;;;13.40;9.57;;;3.00;99.90;;;;;;6138836;28;20604;-76
2021/03/24 04:13:41;;;;;;;13.27;9.10;;;2.90;99.90;;;;;;6139547;28;20230;-76
2021/03/24 04:16:45;;;;;;;16.70;10.60;;;2.90;99.90;;;;;;6154666;28;20607;-76
2021/03/24 04:19:51;;;;;;;14.90;10.03;;;2.80;99.90;;;;;;6162426;28;20238;-76
2021/03/24 04:22:56;;;;;;;18.07;11.70;;;2.80;99.90;;;;;;6162963;28;20226;-76
2021/03/24 04:26:03;;;;;;;15.80;9.37;;;2.80;99.90;;;;;;6161615;28;20225;-76
2021/03/24 04:29:14;;;;;;;14.67;10.20;;;2.80;99.90;;;;;;6186908;28;20225;-77
2021/03/24 04:32:16;;;;;;;13.63;10.23;;;2.80;99.90;;;;;;6150972;28;20256;-76
2021/03/24 04:35:21;;;;;;;16.33;10.17;;;2.80;99.90;;;;;;6179833;28;20217;-76
2021/03/24 04:38:33;;;;;;;14.87;8.60;;;2.80;99.90;;;;;;6148911;28;20237;-76
2021/03/24 04:41:41;;;;;;;17.67;9.93;;;2.80;99.90;;;;;;6137707;28;20246;-76
2021/03/24 04:44:47;;;;;;;14.53;9.30;;;2.80;99.90;;;;;;6138559;28;20229;-76
2021/03/24 04:47:53;;;;;;;12.40;8.90;;;2.70;99.90;;;;;;6113188;29;20236;-77
2021/03/24 04:51:03;;;;;;;16.10;11.80;;;2.70;99.90;;;;;;6098423;29;20242;-76
2021/03/24 04:54:11;;;;;;;15.93;10.90;;;2.60;99.90;;;;;;6114415;29;20230;-76
2021/03/24 04:57:17;;;;;;;14.10;10.13;;;2.60;99.90;;;;;;6113589;29;20294;-77
2021/03/24 05:00:35;;;;;;;15.93;10.10;;;2.60;99.90;;;;;;6097452;29;20355;-76
2021/03/24 05:03:40;;;;;;;16.67;10.57;;;2.60;99.90;;;;;;6113031;29;20725;-77
2021/03/24 05:06:52;;;;;;;16.50;11.87;;;2.60;99.90;;;;;;6114780;29;20235;-76
2021/03/24 05:09:53;;;;;;;18.00;11.50;;;2.60;99.90;;;;;;6115509;29;20231;-76
2021/03/24 05:13:24;;;;;;;18.33;11.67;;;2.70;99.90;;;;;;6113610;29;20242;-76
2021/03/24 05:16:34;;;;;;;16.83;10.97;;;2.70;99.90;;;;;;6126792;28;20230;-76
2021/03/24 05:19:37;;;;;;;14.93;10.83;;;2.80;99.90;;;;;;6140469;28;20705;-77
2021/03/24 05:22:44;;;;;;;16.37;10.57;;;2.90;99.90;;;;;;6137910;28;20230;-77
2021/03/24 05:25:54;;;;;;;13.20;9.87;;;3.10;99.90;;;;;;6120421;28;20234;-76
2021/03/24 05:29:00;;;;;;;15.03;9.97;;;3.20;99.90;;;;;;6136737;28;20595;-77
2021/03/24 05:32:04;;;;;;;16.53;10.37;;;3.30;99.90;;;;;;6138118;28;20856;-77
2021/03/24 05:35:29;;;;;;;15.17;9.67;;;3.40;99.90;;;;;;6137132;28;20249;-77
2021/03/24 05:38:40;;;;;;;17.50;9.73;;;3.50;99.90;;;;;;6137302;28;20313;-77
2021/03/24 05:41:50;;;;;;;15.43;9.70;;;3.50;99.90;;;;;;6156760;28;20449;-77
2021/03/24 05:45:06;;;;;;;15.17;9.27;;;3.50;99.90;;;;;;6159596;28;20726;-77
2021/03/24 05:48:23;;;;;;;11.13;8.57;;;3.60;99.90;;;;;;6160501;28;20791;-76
2021/03/24 05:51:45;;;;;;;13.47;9.27;;;3.70;99.90;;;;;;6176750;28;20229;-77
2021/03/24 05:55:17;;;;;;;14.03;9.13;;;3.70;99.90;;;;;;6159488;28;20263;-76
2021/03/24 05:58:40;;;;;;;13.87;9.77;;;3.80;99.90;;;;;;6160594;28;20234;-77
2021/03/24 06:02:02;;;;;;;12.67;8.77;;;3.90;99.90;;;;;;6159409;28;20284;-77
2021/03/24 06:05:19;;;;;;;16.60;9.70;;;4.00;99.90;;;;;;6158887;28;20242;-77
2021/03/24 06:08:55;;;;;;;10.43;8.10;;;4.00;99.90;;;;;;6160264;28;20235;-77
2021/03/24 06:12:09;;;;;;;12.20;8.93;;;4.10;99.90;;;;;;6160612;28;20584;-77
2021/03/24 06:15:20;;;;;;;12.47;8.80;;;4.20;99.90;;;;;;6142997;28;20316;-77
2021/03/24 06:19:01;;;;;;;12.57;9.03;;;4.20;99.90;;;;;;6145437;28;20222;-77
2021/03/24 06:22:29;;;;;;;12.23;8.53;;;4.30;99.90;;;;;;6166183;28;20237;-77
2021/03/24 06:25:39;;;;;;;12.77;8.47;;;4.30;99.90;;;;;;6171663;28;20254;-77
2021/03/24 06:29:34;;;;;;;12.00;7.67;;;4.40;99.90;;;;;;6140604;28;20226;-77
2021/03/24 06:32:59;;;;;;;12.67;8.43;;;4.40;99.90;;;;;;6106018;29;20241;-77
2021/03/24 06:36:33;;;;;;;12.63;8.30;;;4.50;99.90;;;;;;6105441;28;20311;-77
2021/03/24 06:39:38;;;;;;;12.67;8.57;;;4.50;99.90;;;;;;6154219;28;20602;-77
2021/03/24 06:42:55;;;;;;;13.07;8.57;;;4.60;99.90;;;;;;6117263;29;20775;-77
2021/03/24 06:46:31;;;;;;;13.63;8.87;;;4.70;99.90;;;;;;6127887;28;20238;-77
2021/03/24 06:50:10;;;;;;;10.10;8.10;;;4.70;99.90;;;;;;6142749;28;20318;-77
2021/03/24 06:53:12;;;;;;;12.67;8.60;;;4.90;99.90;;;;;;6142589;28;20235;-77
2021/03/24 06:56:19;;;;;;;12.07;9.03;;;5.00;99.90;;;;;;6159403;28;20231;-77
2021/03/24 06:59:55;;;;;;;10.27;8.57;;;5.00;99.90;;;;;;6159488;28;20227;-77
2021/03/24 07:03:16;;;;;;;10.47;7.57;;;5.10;99.90;;;;;;6158863;28;20231;-77
2021/03/24 07:06:33;;;;;;;11.30;8.50;;;5.20;99.90;;;;;;6181939;28;20236;-77
2021/03/24 07:09:56;;;;;;;13.07;8.17;;;5.20;99.90;;;;;;6166420;28;20682;-77
2021/03/24 07:13:16;;;;;;;10.70;8.13;;;5.30;99.90;;;;;;6181720;28;20695;-77
2021/03/24 07:16:34;;;;;;;13.20;8.13;;;5.40;99.90;;;;;;6182813;28;20735;-77
2021/03/24 07:19:52;;;;;;;11.27;7.57;;;5.50;99.90;;;;;;6181638;28;20232;-77
2021/03/24 07:23:05;;;;;;;10.73;8.20;;;5.60;99.90;;;;;;6164665;28;20236;-77
2021/03/24 07:26:16;;;;;;;11.03;7.77;;;5.60;99.90;;;;;;6164838;28;20395;-77
2021/03/24 07:29:45;;;;;;;11.33;8.17;;;5.80;99.90;;;;;;6182856;28;20273;-77
2021/03/24 07:33:12;;;;;;;10.43;7.50;;;5.90;99.90;;;;;;6182430;28;20839;-77
2021/03/24 07:36:34;;;;;;;9.63;7.47;;;5.90;99.90;;;;;;6164234;28;20307;-77
2021/03/24 07:39:50;;;;;;;10.87;7.77;;;6.00;99.90;;;;;;6184532;28;20315;-77
2021/03/24 07:43:09;;;;;;;10.87;8.27;;;6.00;99.90;;;;;;6187331;28;20231;-77
2021/03/24 07:46:30;;;;;;;11.47;7.70;;;6.10;99.90;;;;;;6187296;28;20236;-77
2021/03/24 07:49:58;;;;;;;10.87;7.73;;;6.20;99.90;;;;;;6187514;28;20226;-77
2021/03/24 07:53:09;;;;;;;10.13;7.80;;;6.20;99.90;;;;;;6188693;28;20770;-77
2021/03/24 07:56:22;;;;;;;15.27;9.07;;;6.30;99.90;;;;;;6170038;28;20291;-77
2021/03/24 08:00:08;;;;;;;11.67;7.77;;;6.30;99.90;;;;;;6169513;28;20230;-77
2021/03/24 08:03:39;;;;;;;12.37;8.47;;;6.30;99.90;;;;;;6118357;28;20659;-77
2021/03/24 08:07:13;;;;;;;12.47;8.47;;;6.30;99.90;;;;;;6187736;28;20694;-77
2021/03/24 08:10:43;;;;;;;9.57;7.47;;;6.40;99.90;;;;;;6173493;28;20992;-77
2021/03/24 08:14:10;;;;;;;13.20;8.67;;;6.60;99.90;;;;;;6168434;28;20225;-77
2021/03/24 08:17:38;;;;;;;10.40;8.30;;;7.00;99.90;;;;;;6186432;28;20233;-77
2021/03/24 08:21:18;;;;;;;10.17;8.07;;;7.40;99.90;;;;;;6184381;28;21827;-77
2021/03/24 08:24:48;;;;;;;11.33;7.90;;;7.90;99.90;;;;;;6081247;29;20284;-77
2021/03/24 08:28:06;;;;;;;10.03;8.30;;;8.20;99.90;;;;;;6087188;29;20324;-77
2021/03/24 08:31:11;;;;;;;10.13;8.23;;;8.30;99.90;;;;;;6088774;29;20244;-77
2021/03/24 08:34:38;;;;;;;11.87;8.60;;;8.30;99.90;;;;;;6088948;29;20279;-77
2021/03/24 08:37:58;;;;;;;11.23;8.17;;;8.10;99.90;;;;;;6089091;29;20243;-77
2021/03/24 08:41:03;;;;;;;11.97;7.93;;;8.10;99.90;;;;;;6065529;29;20264;-77
2021/03/24 08:44:35;;;;;;;13.00;8.27;;;8.10;99.90;;;;;;6082117;29;20239;-77
2021/03/24 08:47:43;;;;;;;13.60;8.40;;;8.20;99.90;;;;;;6065060;29;20240;-77
2021/03/24 08:50:58;;;;;;;10.17;7.63;;;8.40;99.90;;;;;;6070595;29;20244;-77
2021/03/24 08:54:50;;;;;;;12.57;7.77;;;8.30;99.90;;;;;;6064936;29;20750;-77
2021/03/24 08:57:59;;;;;;;10.80;8.33;;;8.10;99.90;;;;;;6040218;29;20242;-77
2021/03/24 09:01:29;;;;;;;11.27;8.10;;;8.00;99.90;;;;;;6147297;28;20706;-77
2021/03/24 09:05:08;;;;;;;10.70;7.87;;;7.80;99.90;;;;;;6183438;28;20264;-77
2021/03/24 09:08:19;;;;;;;12.47;7.60;;;7.70;99.90;;;;;;6148426;28;20228;-77
2021/03/24 09:11:40;;;;;;;11.03;8.17;;;7.70;99.90;;;;;;6155750;28;20320;-77
2021/03/24 09:15:03;;;;;;;9.37;6.90;;;7.70;99.90;;;;;;6169851;28;20620;-77
2021/03/24 09:18:20;;;;;;;14.33;7.33;;;7.80;99.90;;;;;;6166368;28;20361;-77
2021/03/24 09:21:29;;;;;;;10.43;7.30;;;7.90;99.90;;;;;;6168935;28;20227;-77
2021/03/24 09:25:00;;;;;;;9.77;7.10;;;8.00;99.90;;;;;;6147751;28;20275;-77
2021/03/24 09:28:20;;;;;;;11.37;7.77;;;8.10;99.90;;;;;;6160333;28;20238;-77
2021/03/24 09:31:51;;;;;;;12.17;7.60;;;8.10;98.80;;;;;;6161370;28;20235;-77
2021/03/24 09:35:19;;;;;;;10.20;7.57;;;8.20;99.50;;;;;;6117977;28;20234;-77
2021/03/24 09:38:25;;;;;;;10.40;7.47;;;8.30;98.20;;;;;;6137622;28;20323;-77
2021/03/24 09:41:42;;;;;;;10.40;7.27;;;8.50;96.80;;;;;;6152059;28;20247;-77
2021/03/24 09:44:45;;;;;;;8.43;6.93;;;8.60;97.40;;;;;;6156503;28;20236;-77
2021/03/24 09:48:03;;;;;;;10.57;8.10;;;8.90;97.00;;;;;;6148179;28;20321;-77
2021/03/24 09:51:11;;;;;;;9.53;6.83;;;9.00;95.50;;;;;;6142152;28;20244;-77
2021/03/24 09:54:21;;;;;;;11.00;7.40;;;8.90;94.20;;;;;;6147355;28;20672;-77
2021/03/24 09:57:28;;;;;;;9.60;7.47;;;8.70;93.60;;;;;;6162696;28;20471;-77
2021/03/24 10:00:35;;;;;;;11.60;7.73;;;8.60;95.10;;;;;;6141788;28;20248;-77
2021/03/24 10:03:59;;;;;;;11.33;7.60;;;8.60;93.50;;;;;;6145149;28;20239;-77
2021/03/24 10:07:17;;;;;;;8.23;7.10;;;8.40;95.40;;;;;;6146167;28;20235;-77
2021/03/24 10:10:29;;;;;;;9.83;7.13;;;8.20;94.30;;;;;;6157523;28;20639;-77
2021/03/24 10:13:44;;;;;;;10.23;6.90;;;8.00;95.30;;;;;;6142850;28;20319;-77
2021/03/24 10:16:48;;;;;;;9.20;6.83;;;7.90;94.80;;;;;;6152809;28;20230;-77
2021/03/24 10:19:58;;;;;;;10.50;7.03;;;7.80;94.20;;;;;;6156232;28;20230;-77
2021/03/24 10:23:06;;;;;;;9.00;6.97;;;7.80;95.80;;;;;;6158615;28;20320;-77
2021/03/24 10:26:20;;;;;;;10.13;7.33;;;7.90;95.00;;;;;;6152082;28;20231;-77
2021/03/24 10:29:36;;;;;;;8.43;6.83;;;8.00;95.10;;;;;;6144583;28;20232;-77
2021/03/24 10:32:45;;;;;;;9.87;7.40;;;8.00;96.30;;;;;;6144169;28;20222;-77
2021/03/24 10:36:13;;;;;;;9.70;7.43;;;8.00;95.30;;;;;;6183996;28;20228;-77
2021/03/24 10:39:34;;;;;;;9.03;6.53;;;8.00;95.00;;;;;;6150317;28;20592;-77
2021/03/24 10:42:42;;;;;;;9.03;7.33;;;8.00;96.10;;;;;;6143538;28;20250;-77
2021/03/24 10:46:02;;;;;;;9.67;7.17;;;8.00;95.30;;;;;;6146717;28;20241;-77
2021/03/24 10:49:16;;;;;;;10.43;7.07;;;7.90;95.70;;;;;;6140502;28;20296;-77
2021/03/24 10:52:21;;;;;;;8.77;7.00;;;7.90;95.00;;;;;;6143988;28;20789;-77
2021/03/24 10:55:23;;;;;;;8.87;7.23;;;7.80;95.30;;;;;;6151795;28;20234;-77
2021/03/24 10:59:15;;;;;;;8.57;7.00;;;7.90;95.70;;;;;;6133258;28;20318;-77
2021/03/24 11:02:53;;;;;;;9.17;7.07;;;8.10;96.50;;;;;;6123527;28;20585;-77
2021/03/24 11:06:37;;;;;;;9.87;7.23;;;8.20;94.60;;;;;;6131580;28;20229;-77
2021/03/24 11:10:00;;;;;;;10.97;6.97;;;8.20;94.90;;;;;;6067764;29;20224;-77
2021/03/24 11:13:17;;;;;;;8.87;7.60;;;8.30;94.70;;;;;;6068669;29;20225;-77
2021/03/24 11:16:34;;;;;;;10.77;6.80;;;8.30;94.20;;;;;;6072333;29;20225;-77
2021/03/24 11:19:43;;;;;;;10.67;7.47;;;8.30;95.10;;;;;;6074994;29;20575;-77
2021/03/24 11:22:55;;;;;;;9.33;7.70;;;8.40;95.10;;;;;;6072200;29;20234;-77
2021/03/24 11:26:19;;;;;;;10.13;7.47;;;8.50;94.50;;;;;;6080691;29;20239;-77
2021/03/24 11:29:23;;;;;;;11.77;7.47;;;8.60;94.80;;;;;;6077194;29;20314;-77
2021/03/24 11:32:37;;;;;;;11.60;8.67;;;8.70;94.00;;;;;;6076954;29;20225;-77
2021/03/24 11:36:00;;;;;;;10.97;8.30;;;8.80;94.20;;;;;;6072387;29;20226;-77
2021/03/24 11:39:06;;;;;;;9.73;6.83;;;8.90;93.70;;;;;;6080844;28;20230;-77
2021/03/24 11:42:11;;;;;;;10.50;7.83;;;9.20;93.60;;;;;;6149727;28;20212;-77
2021/03/24 11:45:18;;;;;;;11.10;8.33;;;9.30;92.30;;;;;;6163960;28;20245;-77
2021/03/24 11:48:30;;;;;;;11.20;8.37;;;9.30;92.50;;;;;;6166691;28;20311;-77
2021/03/24 11:51:51;;;;;;;8.93;7.93;;;9.40;92.40;;;;;;6163386;28;20246;-77
2021/03/24 11:55:15;;;;;;;10.67;8.37;;;9.50;92.20;;;;;;6162663;28;20699;-77
2021/03/24 11:58:28;;;;;;;13.20;9.07;;;9.70;92.00;;;;;;6171936;28;20279;-77
2021/03/24 12:02:11;;;;;;;10.37;8.13;;;9.70;91.10;;;;;;6151286;28;20737;-77
2021/03/24 12:05:29;;;;;;;11.70;8.70;;;9.70;90.60;;;;;;6152886;28;20717;-77
2021/03/24 12:08:45;;;;;;;11.80;8.70;;;9.60;91.10;;;;;;6158483;28;20620;-77
2021/03/24 12:11:48;;;;;;;11.57;8.97;;;9.50;91.40;;;;;;6167570;28;20317;-77
2021/03/24 12:15:24;;;;;;;13.97;9.50;;;9.30;91.30;;;;;;6152069;28;20283;-77
2021/03/24 12:18:26;;;;;;;12.67;9.50;;;9.10;92.00;;;;;;6170919;28;20309;-77
2021/03/24 12:21:34;;;;;;;14.03;8.93;;;9.10;92.50;;;;;;6159226;28;20232;-77
2021/03/24 12:24:40;;;;;;;12.03;8.33;;;9.10;92.80;;;;;;6147348;28;20281;-77
2021/03/24 12:27:46;;;;;;;12.10;8.93;;;9.10;92.30;;;;;;6160622;28;20222;-77
2021/03/24 12:30:50;;;;;;;13.47;9.17;;;9.10;92.60;;;;;;6168398;28;20241;-77
2021/03/24 12:33:56;;;;;;;14.13;9.17;;;9.00;92.30;;;;;;6182604;28;20230;-77
2021/03/24 12:37:01;;;;;;;11.40;8.63;;;9.00;92.40;;;;;;6162479;28;20237;-77
2021/03/24 12:40:18;;;;;;;12.73;8.93;;;8.90;91.80;;;;;;6144503;28;20743;-77
2021/03/24 12:43:24;;;;;;;15.43;9.60;;;8.80;92.70;;;;;;6163159;28;20230;-77
2021/03/24 12:46:25;;;;;;;12.70;8.50;;;8.70;92.80;;;;;;6159046;28;20230;-77
2021/03/24 12:49:36;;;;;;;12.00;9.10;;;8.80;92.70;;;;;;6185501;28;20225;-77
2021/03/24 12:52:46;;;;;;;12.13;8.93;;;9.00;93.40;;;;;;6155079;28;20243;-77
2021/03/24 12:56:20;;;;;;;14.33;9.33;;;9.10;93.10;;;;;;6152158;28;20605;-77
2021/03/24 12:59:28;;;;;;;14.03;9.03;;;9.10;92.30;;;;;;6168260;28;20279;-77
2021/03/24 13:02:57;;;;;;;14.03;9.27;;;9.10;92.90;;;;;;6185407;28;20232;-77
2021/03/24 13:06:30;;;;;;;12.60;9.27;;;9.00;92.50;;;;;;6185741;28;20228;-77
2021/03/24 13:09:38;;;;;;;13.17;9.47;;;9.10;92.50;;;;;;6184604;28;20378;-77
2021/03/24 13:13:03;;;;;;;11.53;8.67;;;9.00;91.80;;;;;;6185740;28;20245;-77
2021/03/24 13:16:12;;;;;;;14.53;9.53;;;9.00;92.40;;;;;;6167890;28;20237;-77
2021/03/24 13:19:29;;;;;;;14.37;9.93;;;9.00;92.60;;;;;;6184617;28;20258;-77
2021/03/24 13:22:51;;;;;;;16.27;10.37;;;8.90;91.60;;;;;;6168075;28;20312;-77
2021/03/24 13:25:56;;;;;;;13.90;10.10;;;8.90;91.90;;;;;;6153216;28;20606;-77
2021/03/24 13:29:22;;;;;;;14.27;9.50;;;8.90;92.30;;;;;;6167065;28;20251;-77
2021/03/24 13:32:45;;;;;;;14.27;9.17;;;8.90;91.90;;;;;;6184780;28;20240;-77
2021/03/24 13:35:56;;;;;;;15.60;9.93;;;8.90;92.10;;;;;;6166229;28;20236;-77
2021/03/24 13:39:13;;;;;;;12.07;9.60;;;8.90;93.20;;;;;;6167531;28;20348;-77
2021/03/24 13:42:30;;;;;;;15.07;10.47;;;9.00;92.70;;;;;;6184481;28;20299;-77
2021/03/24 13:45:43;;;;;;;12.43;9.07;;;9.10;91.50;;;;;;6151230;28;20319;-77
2021/03/24 13:48:54;;;;;;;16.57;10.50;;;9.10;92.00;;;;;;6184601;28;20238;-77
2021/03/24 13:52:26;;;;;;;18.73;10.93;;;9.20;92.00;;;;;;6185712;28;20240;-77
2021/03/24 13:55:51;;;;;;;15.83;10.33;;;9.30;92.00;;;;;;6163702;28;20307;-77
2021/03/24 13:59:06;;;;;;;12.30;9.23;;;9.40;90.70;;;;;;6183486;28;20235;-77
2021/03/24 14:02:35;;;;;;;14.00;10.20;;;9.40;90.60;;;;;;6166902;28;20248;-77
2021/03/24 14:06:01;;;;;;;17.03;10.13;;;9.50;90.70;;;;;;6168623;28;20318;-77
2021/03/24 14:09:12;;;;;;;16.90;10.43;;;9.50;90.60;;;;;;6183735;28;20242;-77
2021/03/24 14:12:17;;;;;;;14.17;10.07;;;9.40;90.30;;;;;;6150943;28;20300;-77
2021/03/24 14:15:27;;;;;;;13.27;9.73;;;9.30;89.40;;;;;;6183750;28;20264;-77
2021/03/24 14:19:06;;;;;;;15.50;9.90;;;9.30;90.20;;;;;;6182635;28;20224;-77
2021/03/24 14:22:14;;;;;;;14.17;9.57;;;9.30;91.00;;;;;;6182986;28;20343;-77
2021/03/24 14:25:27;;;;;;;14.60;10.43;;;9.40;90.70;;;;;;6166329;28;20225;-77
2021/03/24 14:28:53;;;;;;;14.13;9.70;;;9.40;90.30;;;;;;6169431;28;20253;-77
2021/03/24 14:32:22;;;;;;;14.47;10.03;;;9.40;91.50;;;;;;6184107;28;20236;-77
2021/03/24 14:35:51;;;;;;;16.27;10.43;;;9.50;91.20;;;;;;6166946;28;20237;-77
2021/03/24 14:39:11;;;;;;;14.13;10.03;;;9.50;90.00;;;;;;6182673;28;20655;-77
2021/03/24 14:42:20;;;;;;;14.93;10.43;;;9.50;91.30;;;;;;6183677;28;20227;-77
2021/03/24 14:45:24;;;;;;;18.83;11.23;;;9.50;91.20;;;;;;6183012;28;20325;-77
2021/03/24 14:48:53;;;;;;;12.83;9.97;;;9.50;91.60;;;;;;6182544;28;20725;-77
2021/03/24 14:52:21;;;;;;;15.27;11.43;;;9.40;91.10;;;;;;6167536;28;20630;-77
2021/03/24 14:55:30;;;;;;;17.30;11.60;;;9.40;91.40;;;;;;6183428;28;20276;-77
2021/03/24 14:58:32;;;;;;;15.50;11.03;;;9.30;91.20;;;;;;6182832;28;20238;-77
2021/03/24 15:01:38;;;;;;;16.93;11.10;;;9.30;91.30;;;;;;6165819;28;20239;-77
2021/03/24 15:04:43;;;;;;;18.00;11.90;;;9.30;91.60;;;;;;6165256;28;20233;-77
2021/03/24 15:07:45;;;;;;;17.53;11.77;;;9.30;90.90;;;;;;6182053;28;20229;-77
2021/03/24 15:11:00;;;;;;;14.80;10.93;;;9.30;91.30;;;;;;6181891;28;20257;-77
2021/03/24 15:14:17;;;;;;;15.50;10.73;;;9.40;90.80;;;;;;6165602;28;20242;-77
2021/03/24 15:17:31;;;;;;;17.70;11.20;;;9.30;91.20;;;;;;6165350;28;20281;-77
2021/03/24 15:20:37;;;;;;;18.20;11.97;;;9.30;91.80;;;;;;6165475;28;21146;-77
2021/03/24 15:23:43;;;;;;;14.20;10.93;;;9.30;91.70;;;;;;6181590;28;20244;-77
2021/03/24 15:26:52;;;;;;;16.37;11.70;;;9.30;92.40;;;;;;6183556;28;20257;-77
2021/03/24 15:30:02;;;;;;;19.27;12.47;;;9.20;92.40;;;;;;6182181;28;20232;-77
2021/03/24 15:33:40;;;;;;;15.50;11.57;;;9.10;91.40;;;;;;6181751;28;20310;-77
2021/03/24 15:36:48;;;;;;;17.67;12.27;;;9.00;91.70;;;;;;6174733;28;20236;-77
2021/03/24 15:39:55;;;;;;;17.90;11.13;;;8.90;92.20;;;;;;6182128;28;20249;-77
2021/03/24 15:42:59;;;;;;;18.00;12.00;;;8.90;92.70;;;;;;6165084;28;20228;-77
2021/03/24 15:46:20;;;;;;;17.00;12.17;;;8.90;93.10;;;;;;6163762;28;20275;-77
2021/03/24 15:49:33;;;;;;;16.87;10.97;;;8.90;92.60;;;;;;6181728;28;20735;-77
2021/03/24 15:52:36;;;;;;;16.77;11.70;;;9.00;92.50;;;;;;6181998;28;20320;-77
2021/03/24 15:55:39;;;;;;;18.07;13.20;;;9.00;92.50;;;;;;6165213;28;20232;-77
2021/03/24 15:58:50;;;;;;;17.07;12.13;;;8.90;92.40;;;;;;6182055;28;20319;-77
2021/03/24 16:02:02;;;;;;;14.77;10.73;;;9.00;92.30;;;;;;6168799;28;20322;-77
2021/03/24 16:05:19;;;;;;;17.80;12.50;;;8.90;92.80;;;;;;6186446;28;20245;-77
2021/03/24 16:08:29;;;;;;;18.73;12.80;;;8.90;92.80;;;;;;6169309;28;20375;-77
2021/03/24 16:11:58;;;;;;;16.27;11.90;;;8.80;93.00;;;;;;6188035;28;20324;-77
2021/03/24 16:15:12;;;;;;;14.03;10.30;;;8.80;93.00;;;;;;6186224;28;20244;-77
2021/03/24 16:18:38;;;;;;;16.90;11.63;;;8.70;93.30;;;;;;6185054;28;20234;-77
2021/03/24 16:21:49;;;;;;;13.80;10.73;;;8.70;93.60;;;;;;6186639;28;20229;-77
2021/03/24 16:25:21;;;;;;;15.43;11.13;;;8.60;93.30;;;;;;6186254;28;20331;-77
2021/03/24 16:28:31;;;;;;;17.63;11.30;;;8.50;93.70;;;;;;6186114;28;20238;-77
2021/03/24 16:32:07;;;;;;;16.80;11.20;;;8.50;93.50;;;;;;6186202;28;20239;-77
2021/03/24 16:35:29;;;;;;;14.77;11.50;;;8.40;93.80;;;;;;6184956;28;20236;-77
2021/03/24 16:39:11;;;;;;;15.80;11.50;;;8.40;94.20;;;;;;6185218;28;20263;-77
2021/03/24 16:42:31;;;;;;;18.40;11.70;;;8.30;94.10;;;;;;6186698;28;20242;-77
2021/03/24 16:45:58;;;;;;;14.67;11.40;;;8.20;94.20;;;;;;6185329;28;20227;-77